createdAt,value
2023-01-13T00:01:08.187Z,15.33
2023-01-13T00:03:36.458Z,9.00
2023-01-13T00:06:07.836Z,8.83
2023-01-13T00:08:37.402Z,11.60
2023-01-13T00:11:05.524Z,11.73
2023-01-13T00:13:35.346Z,10.03
2023-01-13T00:16:06.375Z,8.40
2023-01-13T00:18:36.855Z,8.97
2023-01-13T00:21:08.020Z,12.57
2023-01-13T00:23:37.134Z,9.43
2023-01-13T00:26:08.107Z,11.90
2023-01-13T00:28:37.219Z,14.13
2023-01-13T00:31:08.763Z,13.83
2023-01-13T00:33:37.554Z,23.00
2023-01-13T00:36:09.239Z,9.17
2023-01-13T00:38:37.919Z,11.17
2023-01-13T00:41:08.752Z,11.80
2023-01-13T00:43:37.489Z,12.97
2023-01-13T00:46:06.966Z,9.83
2023-01-13T00:48:35.992Z,16.27
2023-01-13T00:51:08.025Z,12.10
2023-01-13T00:53:38.677Z,8.37
2023-01-13T00:56:09.744Z,15.83
2023-01-13T00:58:38.135Z,12.57
2023-01-13T01:01:08.009Z,19.57
2023-01-13T01:03:36.600Z,12.10
2023-01-13T01:06:08.151Z,9.40
2023-01-13T01:08:36.838Z,13.63
2023-01-13T01:11:05.915Z,9.20
2023-01-13T01:13:34.345Z,20.80
2023-01-13T01:16:06.822Z,13.87
2023-01-13T01:18:35.652Z,9.83
2023-01-13T01:21:04.332Z,11.60
2023-01-13T01:23:35.607Z,8.53
2023-01-13T01:26:04.719Z,10.50
2023-01-13T01:28:33.190Z,14.53
2023-01-13T01:31:02.086Z,14.73
2023-01-13T01:33:30.349Z,14.80
2023-01-13T01:35:58.384Z,15.50
2023-01-13T01:38:26.526Z,12.63
2023-01-13T01:40:56.022Z,8.83
2023-01-13T01:44:02.702Z,11.57
2023-01-13T01:46:33.778Z,11.83
2023-01-13T01:49:07.515Z,15.70
2023-01-13T01:51:39.877Z,26.23
2023-01-13T01:54:10.682Z,11.27
2023-01-13T01:56:42.375Z,16.83
2023-01-13T01:59:10.889Z,10.77
2023-01-13T02:01:40.005Z,15.97
2023-01-13T02:04:13.633Z,13.20
2023-01-13T02:06:44.048Z,11.90
2023-01-13T02:09:12.707Z,12.90
2023-01-13T02:11:59.802Z,9.70
2023-01-13T02:14:30.589Z,9.17
2023-01-13T02:17:16.389Z,8.60
2023-01-13T02:20:09.615Z,12.47
2023-01-13T02:23:33.711Z,9.90
2023-01-13T02:26:32.250Z,8.60
2023-01-13T02:29:31.244Z,11.27
2023-01-13T02:32:07.715Z,10.67
2023-01-13T02:34:41.387Z,9.53
2023-01-13T02:37:18.314Z,13.73
2023-01-13T02:39:56.661Z,8.83
2023-01-13T02:42:47.426Z,19.47
2023-01-13T02:45:20.485Z,7.10
2023-01-13T02:47:55.791Z,12.80
2023-01-13T02:50:30.122Z,8.90
2023-01-13T02:53:02.453Z,16.03
2023-01-13T02:55:35.221Z,12.37
2023-01-13T02:58:06.823Z,7.93
2023-01-13T03:00:36.760Z,6.67
2023-01-13T03:03:06.259Z,12.80
2023-01-13T03:05:35.531Z,8.10
2023-01-13T03:08:31.914Z,8.60
2023-01-13T03:11:08.509Z,14.47
2023-01-13T03:14:09.224Z,6.60
2023-01-13T03:16:49.517Z,8.57
2023-01-13T03:19:36.448Z,8.20
2023-01-13T03:22:22.898Z,6.13
2023-01-13T03:24:54.250Z,13.90
2023-01-13T03:27:26.896Z,16.20
2023-01-13T03:30:00.458Z,27.50
2023-01-13T03:32:38.092Z,8.90
2023-01-13T03:35:15.476Z,6.83
2023-01-13T03:37:50.700Z,8.83
2023-01-13T03:40:26.764Z,7.80
2023-01-13T03:43:17.860Z,7.33
2023-01-13T03:45:51.699Z,7.40
2023-01-13T03:48:28.725Z,9.43
2023-01-13T03:51:08.451Z,8.63
2023-01-13T03:53:54.955Z,11.37
2023-01-13T03:56:31.613Z,6.53
2023-01-13T03:59:05.251Z,16.43
2023-01-13T04:01:41.065Z,10.27
2023-01-13T04:04:18.712Z,7.03
2023-01-13T04:06:56.736Z,15.23
2023-01-13T04:09:36.375Z,10.63
2023-01-13T04:12:13.109Z,6.17
2023-01-13T04:14:48.056Z,10.13
2023-01-13T04:17:24.988Z,6.70
2023-01-13T04:19:56.496Z,8.00
2023-01-13T04:22:30.785Z,7.53
2023-01-13T04:25:05.228Z,7.20
2023-01-13T04:27:34.555Z,6.30
2023-01-13T04:30:03.181Z,8.30
2023-01-13T04:32:34.586Z,6.87
2023-01-13T04:35:04.404Z,8.27
2023-01-13T04:37:38.523Z,6.53
2023-01-13T04:40:08.195Z,6.30
2023-01-13T04:42:46.761Z,6.53
2023-01-13T04:45:16.714Z,5.60
2023-01-13T04:47:49.047Z,9.00
2023-01-13T04:50:29.573Z,6.40
2023-01-13T04:53:01.025Z,7.43
2023-01-13T04:55:40.477Z,6.23
2023-01-13T04:58:14.028Z,7.13
2023-01-13T05:00:44.930Z,7.70
2023-01-13T05:03:15.273Z,6.27
2023-01-13T05:05:46.114Z,6.77
2023-01-13T05:08:15.704Z,10.93
2023-01-13T05:10:46.248Z,7.90
2023-01-13T05:13:32.990Z,6.07
2023-01-13T05:16:22.884Z,7.53
2023-01-13T05:18:53.971Z,10.73
2023-01-13T05:21:39.441Z,7.93
2023-01-13T05:24:38.750Z,10.57
2023-01-13T05:27:13.556Z,6.40
2023-01-13T05:29:44.433Z,7.63
2023-01-13T05:32:15.539Z,8.10
2023-01-13T05:34:44.873Z,6.90
2023-01-13T05:37:16.773Z,9.20
2023-01-13T05:40:08.331Z,6.37
2023-01-13T05:42:55.073Z,6.70
2023-01-13T05:45:28.077Z,8.73
2023-01-13T05:48:12.184Z,7.53
2023-01-13T05:50:43.567Z,6.90
2023-01-13T05:53:15.793Z,6.47
2023-01-13T05:55:46.514Z,8.00
2023-01-13T05:58:21.295Z,7.20
2023-01-13T06:00:53.007Z,8.40
2023-01-13T06:03:24.550Z,8.00
2023-01-13T06:05:58.826Z,8.77
2023-01-13T06:08:27.616Z,12.33
2023-01-13T06:11:00.232Z,11.60
2023-01-13T06:13:30.961Z,11.57
2023-01-13T06:16:02.654Z,28.03
2023-01-13T06:18:34.633Z,10.40
2023-01-13T06:21:05.108Z,11.20
2023-01-13T06:23:41.262Z,11.07
2023-01-13T06:26:17.061Z,7.50
2023-01-13T06:28:48.292Z,11.20
2023-01-13T06:31:18.197Z,6.53
2023-01-13T06:33:51.079Z,8.90
2023-01-13T06:36:23.339Z,8.33
2023-01-13T06:38:57.899Z,7.30
2023-01-13T06:41:51.664Z,6.23
2023-01-13T06:44:26.578Z,8.13
2023-01-13T06:46:56.179Z,7.00
2023-01-13T06:49:26.993Z,8.93
2023-01-13T06:51:59.491Z,8.27
2023-01-13T06:54:30.308Z,6.27
2023-01-13T06:57:20.705Z,8.50
2023-01-13T06:59:52.529Z,7.60
2023-01-13T07:02:32.145Z,18.40
2023-01-13T07:05:03.226Z,10.13
2023-01-13T07:07:33.999Z,7.60
2023-01-13T07:10:03.967Z,7.23
2023-01-13T07:12:59.116Z,9.00
2023-01-13T07:15:26.913Z,8.77
2023-01-13T07:17:56.534Z,6.13
2023-01-13T07:20:24.727Z,6.07
2023-01-13T07:22:56.058Z,6.47
2023-01-13T07:25:27.018Z,8.80
2023-01-13T07:28:01.683Z,5.87
2023-01-13T07:30:30.212Z,10.53
2023-01-13T07:33:00.762Z,9.10
2023-01-13T07:35:28.964Z,10.93
2023-01-13T07:37:59.490Z,11.50
2023-01-13T07:40:43.699Z,7.10
2023-01-13T07:43:32.371Z,16.63
2023-01-13T07:46:02.427Z,6.70
2023-01-13T07:48:32.758Z,7.90
2023-01-13T07:51:04.656Z,6.60
2023-01-13T07:56:16.957Z,6.10
2023-01-13T07:58:51.779Z,7.93
2023-01-13T08:01:23.567Z,7.70
2023-01-13T08:03:54.108Z,7.63
2023-01-13T08:06:22.224Z,11.37
2023-01-13T08:08:58.017Z,12.70
2023-01-13T08:11:28.663Z,16.20
2023-01-13T08:14:01.948Z,10.87
2023-01-13T08:16:30.119Z,7.57
2023-01-13T08:19:01.202Z,12.17
2023-01-13T08:21:33.753Z,8.73
2023-01-13T08:24:03.211Z,9.23
2023-01-13T08:26:34.528Z,12.43
2023-01-13T08:29:07.779Z,16.50
2023-01-13T08:31:53.014Z,73.63
2023-01-13T08:34:21.325Z,70.87
2023-01-13T08:36:51.888Z,16.53
2023-01-13T08:39:23.282Z,11.20
2023-01-13T08:41:59.744Z,10.47
2023-01-13T08:44:36.471Z,11.37
2023-01-13T08:47:05.931Z,10.70
2023-01-13T08:49:37.919Z,8.30
2023-01-13T08:52:06.403Z,8.63
2023-01-13T08:54:37.420Z,6.57
2023-01-13T08:57:09.170Z,7.17
2023-01-13T08:59:46.431Z,8.57
2023-01-13T09:02:17.796Z,9.63
2023-01-13T09:04:47.107Z,7.10
2023-01-13T09:07:18.342Z,6.30
2023-01-13T09:09:51.245Z,7.10
2023-01-13T09:12:40.618Z,7.80
2023-01-13T09:15:12.228Z,7.60
2023-01-13T09:17:41.686Z,8.23
2023-01-13T09:20:16.087Z,7.17
2023-01-13T09:23:01.661Z,12.20
2023-01-13T09:25:32.182Z,7.80
2023-01-13T09:28:00.553Z,7.30
2023-01-13T09:30:30.748Z,7.30
2023-01-13T09:33:13.500Z,10.13
2023-01-13T09:35:43.246Z,8.03
2023-01-13T09:38:11.382Z,8.57
2023-01-13T09:40:46.027Z,8.60
2023-01-13T09:43:39.900Z,8.27
2023-01-13T09:46:33.536Z,8.17
2023-01-13T09:49:04.096Z,7.30
2023-01-13T09:51:45.870Z,6.93
2023-01-13T09:54:21.908Z,6.73
2023-01-13T09:56:58.412Z,7.20
2023-01-13T09:59:36.446Z,7.40
2023-01-13T10:02:30.055Z,7.00
2023-01-13T10:05:11.697Z,7.70
2023-01-13T10:07:51.541Z,6.87
2023-01-13T10:10:30.928Z,6.50
2023-01-13T10:13:17.102Z,8.00
2023-01-13T10:15:57.864Z,8.53
2023-01-13T10:18:45.288Z,7.43
2023-01-13T10:21:29.605Z,8.73
2023-01-13T10:24:06.008Z,6.67
2023-01-13T10:27:03.662Z,8.30
2023-01-13T10:29:35.543Z,7.50
2023-01-13T10:32:06.259Z,6.30
2023-01-13T10:34:49.629Z,23.23
2023-01-13T10:37:26.746Z,6.63
2023-01-13T10:39:58.959Z,26.43
2023-01-13T10:42:31.933Z,11.40
2023-01-13T10:45:06.152Z,9.90
2023-01-13T10:47:39.264Z,26.27
2023-01-13T10:50:32.370Z,13.60
2023-01-13T10:53:06.724Z,14.03
2023-01-13T10:55:38.427Z,21.13
2023-01-13T10:58:20.138Z,14.63
2023-01-13T11:00:55.962Z,24.57
2023-01-13T11:03:26.131Z,9.90
2023-01-13T11:05:58.709Z,13.30
2023-01-13T11:08:29.594Z,13.53
2023-01-13T11:10:59.602Z,12.13
2023-01-13T11:13:36.733Z,8.60
2023-01-13T11:16:11.505Z,28.70
2023-01-13T11:18:51.987Z,12.10
2023-01-13T11:21:28.946Z,13.67
2023-01-13T11:24:05.720Z,14.20
2023-01-13T11:26:42.502Z,12.47
2023-01-13T11:29:16.156Z,13.13
2023-01-13T11:31:48.657Z,9.40
2023-01-13T11:34:28.118Z,12.03
2023-01-13T11:37:01.634Z,8.90
2023-01-13T11:39:42.178Z,20.47
2023-01-13T11:42:24.564Z,13.93
2023-01-13T11:45:04.676Z,18.57
2023-01-13T11:47:33.782Z,7.70
2023-01-13T11:50:02.753Z,9.70
2023-01-13T11:52:55.993Z,12.27
2023-01-13T11:55:36.335Z,8.77
2023-01-13T11:58:19.505Z,8.53
2023-01-13T12:01:09.979Z,9.20
2023-01-13T12:03:43.982Z,9.70
2023-01-13T12:06:20.955Z,9.83
2023-01-13T12:09:14.149Z,9.60
2023-01-13T12:12:12.004Z,9.07
2023-01-13T12:14:52.359Z,11.00
2023-01-13T12:17:27.447Z,8.70
2023-01-13T12:19:56.068Z,10.50
2023-01-13T12:22:30.389Z,12.93
2023-01-13T12:25:06.703Z,8.63
2023-01-13T12:27:42.735Z,10.30
2023-01-13T12:30:25.022Z,10.10
2023-01-13T12:32:55.220Z,7.80
2023-01-13T12:35:36.210Z,9.90
2023-01-13T12:38:21.569Z,9.50
2023-01-13T12:41:04.082Z,8.73
2023-01-13T12:43:55.598Z,10.40
2023-01-13T12:46:56.310Z,7.33
2023-01-13T12:49:34.067Z,12.33
2023-01-13T12:52:19.933Z,9.70
2023-01-13T12:55:17.683Z,10.13
2023-01-13T12:58:16.902Z,7.17
2023-01-13T13:01:01.350Z,10.07
2023-01-13T13:03:33.370Z,13.70
2023-01-13T13:06:19.618Z,9.50
2023-01-13T13:09:03.884Z,9.30
2023-01-13T13:12:03.403Z,8.40
2023-01-13T13:15:20.499Z,11.20
2023-01-13T13:18:04.423Z,11.90
2023-01-13T13:20:57.883Z,7.87
2023-01-13T13:23:48.061Z,10.73
2023-01-13T13:26:25.093Z,10.70
2023-01-13T13:29:35.749Z,11.20
2023-01-13T13:32:25.259Z,10.90
2023-01-13T13:35:06.804Z,11.87
2023-01-13T13:38:03.502Z,11.17
2023-01-13T13:40:52.821Z,14.70
2023-01-13T13:43:39.042Z,11.27
2023-01-13T13:46:44.526Z,40.90
2023-01-13T13:49:14.913Z,13.23
2023-01-13T13:51:49.353Z,20.30
2023-01-13T13:54:22.811Z,11.50
2023-01-13T13:56:52.148Z,15.47
2023-01-13T13:59:23.707Z,26.43
2023-01-13T14:02:01.518Z,35.57
2023-01-13T14:04:33.552Z,29.93
2023-01-13T14:07:05.002Z,15.53
2023-01-13T14:09:42.876Z,21.87
2023-01-13T14:12:18.843Z,17.83
2023-01-13T14:14:48.220Z,13.23
2023-01-13T14:17:23.850Z,7.50
2023-01-13T14:20:01.547Z,7.80
2023-01-13T14:22:29.866Z,9.93
2023-01-13T14:24:58.593Z,12.00
2023-01-13T14:27:28.893Z,8.47
2023-01-13T14:29:59.369Z,12.00
2023-01-13T14:32:35.074Z,12.07
2023-01-13T14:35:07.365Z,10.03
2023-01-13T14:37:38.545Z,10.23
2023-01-13T14:40:07.597Z,7.77
2023-01-13T14:42:36.285Z,12.13
2023-01-13T14:45:04.918Z,13.70
2023-01-13T14:47:34.783Z,37.20
2023-01-13T14:50:07.619Z,10.03
2023-01-13T14:52:37.844Z,9.90
2023-01-13T14:55:29.461Z,9.27
2023-01-13T14:58:24.423Z,13.30
2023-01-13T15:00:53.960Z,18.30
2023-01-13T15:03:22.756Z,14.27
2023-01-13T15:05:53.598Z,12.80
2023-01-13T15:08:35.999Z,12.87
2023-01-13T15:11:05.863Z,8.37
2023-01-13T15:13:45.169Z,14.57
2023-01-13T15:16:25.061Z,9.77
2023-01-13T15:18:54.010Z,13.60
2023-01-13T15:21:25.078Z,14.33
2023-01-13T15:23:53.382Z,13.00
2023-01-13T15:26:24.592Z,13.83
2023-01-13T15:28:53.481Z,10.97
2023-01-13T15:31:22.055Z,15.20
2023-01-13T15:33:50.897Z,17.27
2023-01-13T15:36:27.060Z,8.43
2023-01-13T15:38:55.934Z,11.30
2023-01-13T15:41:38.561Z,16.53
2023-01-13T15:44:24.631Z,16.13
2023-01-13T15:46:53.540Z,20.00
2023-01-13T15:49:27.867Z,39.67
2023-01-13T15:51:57.424Z,26.60
2023-01-13T15:54:25.610Z,14.93
2023-01-13T15:56:54.195Z,19.20
2023-01-13T15:59:25.713Z,13.50
2023-01-13T16:01:53.921Z,65.10
2023-01-13T16:04:22.175Z,15.63
2023-01-13T16:06:50.328Z,9.57
2023-01-13T16:09:19.930Z,18.63
2023-01-13T16:11:48.118Z,15.40
2023-01-13T16:14:16.331Z,20.30
2023-01-13T16:16:44.547Z,14.40
2023-01-13T16:19:13.963Z,20.17
2023-01-13T16:21:42.153Z,14.20
2023-01-13T16:24:10.370Z,11.87
2023-01-13T16:26:39.980Z,9.97
2023-01-13T16:29:09.608Z,12.43
2023-01-13T16:31:37.983Z,12.73
2023-01-13T16:34:07.010Z,15.33
2023-01-13T16:36:37.469Z,12.97
2023-01-13T16:39:06.691Z,17.33
2023-01-13T16:41:35.796Z,23.23
2023-01-13T16:44:06.189Z,12.80
2023-01-13T16:46:35.241Z,16.10
2023-01-13T16:49:05.082Z,14.20
2023-01-13T16:51:33.781Z,11.60
2023-01-13T16:54:02.088Z,13.17
2023-01-13T16:56:31.786Z,13.67
2023-01-13T16:59:02.552Z,13.43
2023-01-13T17:01:34.504Z,20.60
2023-01-13T17:04:03.002Z,9.80
2023-01-13T17:06:35.647Z,11.37
2023-01-13T17:09:05.694Z,12.10
2023-01-13T17:11:34.111Z,14.50
2023-01-13T17:14:18.027Z,8.80
2023-01-13T17:16:49.055Z,14.60
2023-01-13T17:19:17.986Z,30.17
2023-01-13T17:21:47.203Z,190.97
2023-01-13T17:24:15.773Z,165.17
2023-01-13T17:26:47.631Z,274.43
2023-01-13T17:29:17.518Z,151.63
2023-01-13T17:31:45.828Z,26.23
2023-01-13T17:34:15.687Z,21.07
2023-01-13T17:36:43.993Z,27.67
2023-01-13T17:39:17.024Z,34.17
2023-01-13T17:41:45.382Z,30.00
2023-01-13T17:44:14.982Z,25.87
2023-01-13T17:46:43.323Z,32.93
2023-01-13T17:49:12.449Z,33.03
2023-01-13T17:51:42.110Z,19.50
2023-01-13T17:54:12.424Z,12.23
2023-01-13T17:56:41.019Z,20.90
2023-01-13T17:59:10.505Z,12.90
2023-01-13T18:01:39.412Z,14.63
2023-01-13T18:04:08.104Z,17.80
2023-01-13T18:06:36.263Z,17.67
2023-01-13T18:09:06.052Z,18.07
2023-01-13T18:11:34.132Z,17.83
2023-01-13T18:14:02.304Z,31.70
2023-01-13T18:16:32.308Z,12.87
2023-01-13T18:19:14.886Z,27.47
2023-01-13T18:22:00.744Z,14.83
2023-01-13T18:24:47.769Z,6.93
2023-01-13T18:27:23.703Z,10.63
2023-01-13T18:29:53.362Z,25.80
2023-01-13T18:32:22.101Z,19.27
2023-01-13T18:35:01.577Z,10.97
2023-01-13T18:37:35.774Z,13.47
2023-01-13T18:40:07.277Z,14.97
2023-01-13T18:42:54.441Z,21.90
2023-01-13T18:45:25.440Z,24.13
2023-01-13T18:47:54.454Z,12.97
2023-01-13T18:50:23.219Z,12.63
2023-01-13T18:52:52.028Z,20.10
2023-01-13T18:55:22.633Z,13.73
2023-01-13T18:57:53.525Z,15.60
2023-01-13T19:00:27.537Z,13.47
2023-01-13T19:05:36.427Z,10.83
2023-01-13T19:08:04.919Z,25.83
2023-01-13T19:10:34.571Z,13.77
2023-01-13T19:13:02.831Z,9.93
2023-01-13T19:15:31.332Z,20.87
2023-01-13T19:17:59.553Z,10.50
2023-01-13T19:20:27.771Z,25.87
2023-01-13T19:22:56.084Z,27.20
2023-01-13T19:25:24.254Z,27.43
2023-01-13T19:27:53.832Z,26.00
2023-01-13T19:30:22.115Z,16.70
2023-01-13T19:32:50.259Z,20.47
2023-01-13T19:35:19.951Z,22.87
2023-01-13T19:37:48.226Z,15.00
2023-01-13T19:40:16.831Z,48.67
2023-01-13T19:43:02.609Z,35.03
2023-01-13T19:45:35.315Z,18.60
2023-01-13T19:48:05.533Z,22.03
2023-01-13T19:50:37.670Z,12.40
2023-01-13T19:53:05.902Z,16.13
2023-01-13T19:55:34.036Z,18.40
2023-01-13T19:58:03.461Z,20.03
2023-01-13T20:00:33.446Z,17.97
2023-01-13T20:03:03.601Z,22.13
2023-01-13T20:05:31.888Z,27.40
2023-01-13T20:08:00.147Z,19.07
2023-01-13T20:10:30.530Z,15.83
2023-01-13T20:12:58.850Z,28.03
2023-01-13T20:15:27.049Z,14.73
2023-01-13T20:17:57.400Z,15.63
2023-01-13T20:20:27.382Z,15.37
2023-01-13T20:22:55.714Z,19.63
2023-01-13T20:25:23.886Z,19.00
2023-01-13T20:27:53.217Z,22.90
2023-01-13T20:30:21.710Z,17.80
2023-01-13T20:32:50.353Z,17.40
2023-01-13T20:35:24.393Z,15.50
2023-01-13T20:37:58.587Z,27.70
2023-01-13T20:40:33.579Z,14.67
2023-01-13T20:43:00.848Z,26.37
2023-01-13T20:45:29.496Z,16.83
2023-01-13T20:47:57.593Z,17.77
2023-01-13T20:50:27.158Z,21.03
2023-01-13T20:52:55.297Z,22.70
2023-01-13T20:55:23.495Z,24.67
2023-01-13T20:57:51.666Z,18.30
2023-01-13T21:00:23.005Z,29.43
2023-01-13T21:02:51.363Z,21.60
2023-01-13T21:05:25.196Z,19.93
2023-01-13T21:07:56.127Z,15.23
2023-01-13T21:10:25.604Z,27.07
2023-01-13T21:13:12.279Z,18.80
2023-01-13T21:15:43.036Z,34.13
2023-01-13T21:18:28.393Z,20.07
2023-01-13T21:21:11.575Z,21.70
2023-01-13T21:23:42.520Z,31.43
2023-01-13T21:26:11.412Z,31.87
2023-01-13T21:28:39.604Z,19.43
2023-01-13T21:31:09.247Z,18.33
2023-01-13T21:33:38.340Z,30.53
2023-01-13T21:36:07.284Z,28.83
2023-01-13T21:38:36.177Z,28.63
2023-01-13T21:41:07.730Z,17.97
2023-01-13T21:43:55.037Z,16.73
2023-01-13T21:46:41.267Z,28.53
2023-01-13T21:49:09.963Z,29.70
2023-01-13T21:51:38.212Z,40.67
2023-01-13T21:54:06.418Z,32.10
2023-01-13T21:56:36.123Z,32.73
2023-01-13T21:59:04.259Z,45.07
2023-01-13T22:01:32.580Z,21.50
2023-01-13T22:04:16.225Z,40.47
2023-01-13T22:06:44.355Z,16.10
2023-01-13T22:09:13.120Z,42.73
2023-01-13T22:11:43.417Z,17.67
2023-01-13T22:14:13.973Z,26.93
2023-01-13T22:16:49.438Z,42.20
2023-01-13T22:19:18.245Z,38.63
2023-01-13T22:21:46.592Z,30.57
2023-01-13T22:24:14.801Z,64.00
2023-01-13T22:26:44.593Z,21.20
2023-01-13T22:29:12.744Z,69.87
2023-01-13T22:31:41.114Z,16.13
2023-01-13T22:34:09.289Z,25.53
2023-01-13T22:36:37.704Z,47.80
2023-01-13T22:39:05.891Z,22.30
2023-01-13T22:41:34.017Z,31.10
2023-01-13T22:44:03.606Z,30.03
2023-01-13T22:46:31.956Z,41.40
2023-01-13T22:49:00.101Z,37.27
2023-01-13T22:51:28.372Z,21.53
2023-01-13T22:53:56.541Z,34.80
2023-01-13T22:56:25.951Z,34.17
2023-01-13T22:58:54.944Z,17.17
2023-01-13T23:01:26.018Z,27.23
2023-01-13T23:03:54.296Z,33.57
2023-01-13T23:06:24.339Z,30.23
2023-01-13T23:08:53.086Z,25.97
2023-01-13T23:11:23.549Z,36.03
2023-01-13T23:13:51.942Z,25.40
2023-01-13T23:16:22.143Z,23.27
2023-01-13T23:18:51.841Z,34.30
2023-01-13T23:21:21.574Z,30.40
2023-01-13T23:23:53.145Z,20.47
2023-01-13T23:26:22.479Z,37.23
2023-01-13T23:28:51.302Z,27.83
2023-01-13T23:31:21.546Z,24.83
2023-01-13T23:33:51.207Z,43.53
2023-01-13T23:36:21.226Z,30.23
2023-01-13T23:38:49.624Z,23.73
2023-01-13T23:41:19.533Z,32.60
2023-01-13T23:43:52.592Z,19.83
2023-01-13T23:46:22.173Z,39.20
2023-01-13T23:48:52.407Z,22.50
2023-01-13T23:51:21.831Z,25.07
2023-01-13T23:53:51.570Z,44.43
2023-01-13T23:56:21.581Z,35.83
2023-01-13T23:58:50.294Z,32.00
